Northern Power — A8TL6 — position and weather

sailwx.info

Track history (hours):
 
Tides and Currents Weather Stations Pressure Air Temp Water Temp Dewpoint Dewpoint Depression Visibility Wind Speed Wind Dir Waves Ship Positions

Northern Power

Last reported at 2017-Jul-09 22:58 UTC. Time now 2017-Jul-21 08:40 UTC.
Position S 28°01' E 033°48'.
Warning: this ship's position is 11 days out of date.

Length 264 m; draft 10.9 m.

Type: Cargo ship. MMSI: 636091835.

Date/timePositionNaut miles runAvg speedWind from/ knotsBaromVisibWave heightAir tempDewpointWater temp
2017-Jul-09 22:58S 28°01' E 033°48'818.0
2017-Jul-09 22:30S 28°07' E 033°42'918.0
2017-Jul-09 22:01S 28°14' E 033°36'917.8
2017-Jul-09 21:31S 28°21' E 033°29'917.8
2017-Jul-09 21:01S 28°28' E 033°23'917.8
2017-Jul-09 20:31S 28°35' E 033°16'917.6
2017-Jul-09 20:00S 28°42' E 033°10'917.6
2017-Jul-09 19:30S 28°49' E 033°04'917.4
2017-Jul-09 19:00S 28°55' E 032°57'917.4
2017-Jul-09 18:31S 29°02' E 032°51'917.3
2017-Jul-09 18:00S 29°08' E 032°44'917.3
2017-Jul-09 17:30S 29°13' E 032°36'917.7
2017-Jul-09 17:00S 29°16' E 032°27'917.6
2017-Jul-09 16:30S 29°20' E 032°17'918.7
2017-Jul-09 16:00S 29°24' E 032°08'918.7
2017-Jul-09 15:31S 29°28' E 031°58'918.8
2017-Jul-09 15:00S 29°32' E 031°48'918.3
2017-Jul-09 14:30S 29°36' E 031°39'918.8
2017-Jul-09 14:00S 29°40' E 031°29'918.7
2017-Jul-09 13:30S 29°44' E 031°19'918.4
2017-Jul-09 13:00S 29°49' E 031°10'713.4
2017-Jul-09 12:31S 29°52' E 031°03'2 3.2
2017-Jul-09 11:56S 29°53' E 031°02'0 0.3
2017-Jul-09 11:29S 29°53' E 031°02'0 0.0
2017-Jul-09 10:59S 29°53' E 031°02'0 0.0
2017-Jul-09 10:30S 29°53' E 031°02'0 0.0
2017-Jul-09 09:59S 29°53' E 031°02'0 0.0
2017-Jul-09 09:26S 29°53' E 031°01'0 0.0
2017-Jul-09 08:59S 29°53' E 031°02'0 0.0
2017-Jul-09 08:29S 29°53' E 031°02'0 0.0
2017-Jul-09 07:59S 29°53' E 031°02'0 0.0
2017-Jul-09 07:29S 29°53' E 031°02'0 0.0
2017-Jul-09 06:59S 29°53' E 031°02'0 0.0
2017-Jul-09 06:29S 29°53' E 031°02'0 0.0
2017-Jul-09 05:59S 29°53' E 031°02'0 0.0
2017-Jul-09 05:29S 29°53' E 031°02'0 0.0
2017-Jul-09 04:59S 29°53' E 031°02'0 0.0
2017-Jul-09 04:29S 29°53' E 031°02'0 0.0
2017-Jul-09 03:59S 29°53' E 031°02'0 0.0
2017-Jul-09 03:29S 29°53' E 031°02'0 0.0
2017-Jul-09 02:59S 29°53' E 031°02'0 0.0
2017-Jul-09 02:29S 29°53' E 031°02'0 0.0
2017-Jul-09 01:59S 29°53' E 031°02'0 0.0
2017-Jul-09 01:29S 29°53' E 031°02'0 0.0
2017-Jul-09 00:56S 29°53' E 031°02'0 0.0
2017-Jul-09 00:29S 29°53' E 031°02'0 0.0
2017-Jul-08 23:59S 29°53' E 031°02'0 0.0
2017-Jul-08 23:29S 29°53' E 031°02'0 0.0
2017-Jul-08 22:59S 29°53' E 031°02'0 0.0
2017-Jul-08 22:29S 29°53' E 031°02'0 0.0
2017-Jul-08 21:59S 29°53' E 031°02'0 0.0
2017-Jul-08 21:29S 29°53' E 031°02'0 0.0
2017-Jul-08 20:59S 29°53' E 031°02'0 0.0
2017-Jul-08 20:29S 29°53' E 031°02'0 0.0
2017-Jul-08 19:59S 29°53' E 031°02'0 0.0
2017-Jul-08 19:30S 29°53' E 031°02'1 1.8
2017-Jul-08 19:01S 29°53' E 031°02'3 6.4
2017-Jul-08 18:30S 29°50' E 031°05'0 0.7
2017-Jul-08 18:01S 29°50' E 031°05'2 4.6
2017-Jul-08 17:30S 29°48' E 031°06'5 8.7
2017-Jul-08 16:59S 29°44' E 031°09'0 0.1
2017-Jul-08 16:29S 29°44' E 031°09'0 0.0
2017-Jul-08 15:59S 29°44' E 031°09'0 0.0
2017-Jul-08 15:29S 29°44' E 031°09'0 0.0
2017-Jul-08 14:59S 29°44' E 031°09'0 0.0
2017-Jul-08 13:59S 29°44' E 031°09'0 0.0
2017-Jul-08 13:29S 29°44' E 031°09'0 0.0
2017-Jul-08 12:56S 29°44' E 031°09'0 0.0
2017-Jul-08 12:29S 29°44' E 031°09'0 0.0
2017-Jul-08 11:59S 29°44' E 031°09'0 0.0
2017-Jul-08 11:29S 29°44' E 031°09'0 0.0
2017-Jul-08 10:59S 29°44' E 031°09'0 0.0
2017-Jul-08 10:29S 29°44' E 031°09'0 0.0
2017-Jul-08 09:59S 29°44' E 031°09'0 0.0
2017-Jul-08 09:29S 29°44' E 031°09'0 0.0
2017-Jul-08 08:59S 29°44' E 031°09'0 0.0
2017-Jul-08 08:29S 29°44' E 031°09'0 0.0
2017-Jul-08 07:59S 29°44' E 031°09'0 0.0
2017-Jul-08 07:29S 29°44' E 031°09'0 0.0
2017-Jul-08 06:59S 29°44' E 031°09'0 0.1
2017-Jul-08 06:29S 29°44' E 031°09'0 0.1
2017-Jul-08 05:59S 29°44' E 031°09'0 0.0
2017-Jul-08 05:29S 29°44' E 031°09'0 0.0
2017-Jul-08 04:59S 29°44' E 031°09'0 0.0
2017-Jul-08 04:29S 29°44' E 031°09'0 0.0
2017-Jul-08 03:59S 29°44' E 031°09'0 0.1
2017-Jul-08 03:29S 29°44' E 031°09'0 0.1
2017-Jul-08 02:59S 29°44' E 031°09'0 0.1
2017-Jul-08 02:29S 29°44' E 031°09'0 0.0
2017-Jul-08 01:59S 29°44' E 031°09'0 0.0
2017-Jul-08 01:29S 29°44' E 031°09'0 0.0
2017-Jul-08 00:59S 29°44' E 031°09'0 0.0
2017-Jul-08 00:29S 29°44' E 031°09'0 0.0
2017-Jul-07 23:59S 29°44' E 031°09'0 0.0
2017-Jul-07 23:29S 29°44' E 031°09'0 0.0
2017-Jul-07 22:59S 29°44' E 031°09'0 0.0
2017-Jul-07 22:29S 29°44' E 031°09'0 0.0
2017-Jul-07 21:59S 29°44' E 031°09'0 0.0
2017-Jul-07 21:29S 29°44' E 031°09'0 0.0
2017-Jul-07 20:59S 29°44' E 031°09'0 0.1
2017-Jul-07 20:29S 29°44' E 031°09'0 0.0
2017-Jul-07 19:59S 29°44' E 031°09'0 0.0
2017-Jul-07 19:29S 29°44' E 031°09'0 0.0
2017-Jul-07 18:59S 29°44' E 031°09'0 0.1
2017-Jul-07 18:29S 29°44' E 031°09'0 0.0
2017-Jul-07 17:59S 29°44' E 031°09'0 0.0
2017-Jul-07 17:29S 29°44' E 031°09'0 0.1
2017-Jul-07 16:59S 29°44' E 031°09'0 0.0
2017-Jul-07 16:29S 29°44' E 031°09'0 0.1
2017-Jul-07 15:59S 29°44' E 031°09'0 0.1
2017-Jul-07 15:29S 29°44' E 031°09'0 0.0
2017-Jul-07 14:59S 29°44' E 031°09'0 0.0
2017-Jul-07 13:59S 29°44' E 031°09'0 0.1
2017-Jul-07 13:29S 29°44' E 031°09'0 0.0
2017-Jul-07 12:59S 29°44' E 031°09'0 0.0
2017-Jul-07 12:29S 29°44' E 031°09'0 0.0
2017-Jul-07 11:59S 29°44' E 031°09'0 0.0
2017-Jul-07 11:29S 29°44' E 031°09'0 0.0
2017-Jul-07 10:59S 29°44' E 031°09'0 0.0
2017-Jul-07 10:29S 29°44' E 031°09'0 0.0
2017-Jul-07 09:59S 29°44' E 031°09'0 0.1
2017-Jul-07 09:29S 29°44' E 031°09'0 0.1
2017-Jul-07 08:59S 29°44' E 031°09'0 0.0
2017-Jul-07 08:29S 29°44' E 031°09'0 0.0
2017-Jul-07 07:59S 29°44' E 031°09'0 0.0
2017-Jul-07 07:29S 29°44' E 031°09'0 0.0
2017-Jul-07 06:59S 29°44' E 031°09'0 0.0
2017-Jul-07 06:29S 29°44' E 031°09'0 0.0
2017-Jul-07 05:59S 29°44' E 031°09'0 0.0
2017-Jul-07 05:29S 29°44' E 031°09'0 0.0
2017-Jul-07 04:59S 29°44' E 031°09'0 0.0
2017-Jul-07 04:28S 29°44' E 031°09'0 0.0
2017-Jul-07 03:59S 29°44' E 031°09'0 0.0
2017-Jul-07 03:28S 29°44' E 031°09'0 0.0
2017-Jul-07 02:59S 29°44' E 031°09'0 0.0
2017-Jul-07 02:29S 29°44' E 031°09'0 0.0
2017-Jul-07 01:59S 29°44' E 031°09'0 0.0
2017-Jul-07 01:29S 29°44' E 031°09'0 0.0
2017-Jul-07 00:59S 29°44' E 031°09'0 0.0
2017-Jul-07 00:29S 29°44' E 031°09'0 0.0
2017-Jul-06 23:59S 29°44' E 031°09'0 0.0
2017-Jul-06 23:29S 29°44' E 031°09'0 0.1
2017-Jul-06 23:14S 29°44' E 031°09'0 0.0
2017-Jul-05 08:28S 29°44' E 031°09'0 0.0
2017-Jul-05 07:58S 29°44' E 031°09'0 0.1
2017-Jul-05 07:23S 29°44' E 031°09'1 2.4
2017-Jul-05 07:00S 29°45' E 031°09'4 8.2
2017-Jul-05 06:31S 29°49' E 031°09'612.5
2017-Jul-05 06:00S 29°55' E 031°09'713.9
2017-Jul-05 05:30S 30°02' E 031°09'713.8
2017-Jul-05 05:00S 30°09' E 031°09'713.4
2017-Jul-05 04:30S 30°15' E 031°08'612.4
2017-Jul-05 04:00S 30°22' E 031°07'  
Track history (hours):
 
Tides and Currents Weather Stations Pressure Air Temp Water Temp Dewpoint Dewpoint Depression Visibility Wind Speed Wind Dir Waves Ship Positions

Northern Power

Last reported at 2017-Jul-09 22:58 UTC. Time now 2017-Jul-21 08:40 UTC.
Position S 28°01' E 033°48'.
Warning: this ship's position is 11 days out of date.

Length 264 m; draft 10.9 m.

Type: Cargo ship. MMSI: 636091835.

Date/timePositionNaut miles runAvg speedWind from/ knotsBaromVisibWave heightAir tempDewpointWater temp
2017-Jul-09 22:58S 28°01' E 033°48'818.0
2017-Jul-09 22:30S 28°07' E 033°42'918.0
2017-Jul-09 22:01S 28°14' E 033°36'917.8
2017-Jul-09 21:31S 28°21' E 033°29'917.8
2017-Jul-09 21:01S 28°28' E 033°23'917.8
2017-Jul-09 20:31S 28°35' E 033°16'917.6
2017-Jul-09 20:00S 28°42' E 033°10'917.6
2017-Jul-09 19:30S 28°49' E 033°04'917.4
2017-Jul-09 19:00S 28°55' E 032°57'917.4
2017-Jul-09 18:31S 29°02' E 032°51'917.3
2017-Jul-09 18:00S 29°08' E 032°44'917.3
2017-Jul-09 17:30S 29°13' E 032°36'917.7
2017-Jul-09 17:00S 29°16' E 032°27'917.6
2017-Jul-09 16:30S 29°20' E 032°17'918.7
2017-Jul-09 16:00S 29°24' E 032°08'918.7
2017-Jul-09 15:31S 29°28' E 031°58'918.8
2017-Jul-09 15:00S 29°32' E 031°48'918.3
2017-Jul-09 14:30S 29°36' E 031°39'918.8
2017-Jul-09 14:00S 29°40' E 031°29'918.7
2017-Jul-09 13:30S 29°44' E 031°19'918.4
2017-Jul-09 13:00S 29°49' E 031°10'713.4
2017-Jul-09 12:31S 29°52' E 031°03'2 3.2
2017-Jul-09 11:56S 29°53' E 031°02'0 0.3
2017-Jul-09 11:29S 29°53' E 031°02'0 0.0
2017-Jul-09 10:59S 29°53' E 031°02'0 0.0
2017-Jul-09 10:30S 29°53' E 031°02'0 0.0
2017-Jul-09 09:59S 29°53' E 031°02'0 0.0
2017-Jul-09 09:26S 29°53' E 031°01'0 0.0
2017-Jul-09 08:59S 29°53' E 031°02'0 0.0
2017-Jul-09 08:29S 29°53' E 031°02'0 0.0
2017-Jul-09 07:59S 29°53' E 031°02'0 0.0
2017-Jul-09 07:29S 29°53' E 031°02'0 0.0
2017-Jul-09 06:59S 29°53' E 031°02'0 0.0
2017-Jul-09 06:29S 29°53' E 031°02'0 0.0
2017-Jul-09 05:59S 29°53' E 031°02'0 0.0
2017-Jul-09 05:29S 29°53' E 031°02'0 0.0
2017-Jul-09 04:59S 29°53' E 031°02'0 0.0
2017-Jul-09 04:29S 29°53' E 031°02'0 0.0
2017-Jul-09 03:59S 29°53' E 031°02'0 0.0
2017-Jul-09 03:29S 29°53' E 031°02'0 0.0
2017-Jul-09 02:59S 29°53' E 031°02'0 0.0
2017-Jul-09 02:29S 29°53' E 031°02'0 0.0
2017-Jul-09 01:59S 29°53' E 031°02'0 0.0
2017-Jul-09 01:29S 29°53' E 031°02'0 0.0
2017-Jul-09 00:56S 29°53' E 031°02'0 0.0
2017-Jul-09 00:29S 29°53' E 031°02'0 0.0
2017-Jul-08 23:59S 29°53' E 031°02'0 0.0
2017-Jul-08 23:29S 29°53' E 031°02'0 0.0
2017-Jul-08 22:59S 29°53' E 031°02'0 0.0
2017-Jul-08 22:29S 29°53' E 031°02'0 0.0
2017-Jul-08 21:59S 29°53' E 031°02'0 0.0
2017-Jul-08 21:29S 29°53' E 031°02'0 0.0
2017-Jul-08 20:59S 29°53' E 031°02'0 0.0
2017-Jul-08 20:29S 29°53' E 031°02'0 0.0
2017-Jul-08 19:59S 29°53' E 031°02'0 0.0
2017-Jul-08 19:30S 29°53' E 031°02'1 1.8
2017-Jul-08 19:01S 29°53' E 031°02'3 6.4
2017-Jul-08 18:30S 29°50' E 031°05'0 0.7
2017-Jul-08 18:01S 29°50' E 031°05'2 4.6
2017-Jul-08 17:30S 29°48' E 031°06'5 8.7
2017-Jul-08 16:59S 29°44' E 031°09'0 0.1
2017-Jul-08 16:29S 29°44' E 031°09'0 0.0
2017-Jul-08 15:59S 29°44' E 031°09'0 0.0
2017-Jul-08 15:29S 29°44' E 031°09'0 0.0
2017-Jul-08 14:59S 29°44' E 031°09'0 0.0
2017-Jul-08 13:59S 29°44' E 031°09'0 0.0
2017-Jul-08 13:29S 29°44' E 031°09'0 0.0
2017-Jul-08 12:56S 29°44' E 031°09'0 0.0
2017-Jul-08 12:29S 29°44' E 031°09'0 0.0
2017-Jul-08 11:59S 29°44' E 031°09'0 0.0
2017-Jul-08 11:29S 29°44' E 031°09'0 0.0
2017-Jul-08 10:59S 29°44' E 031°09'0 0.0
2017-Jul-08 10:29S 29°44' E 031°09'0 0.0
2017-Jul-08 09:59S 29°44' E 031°09'0 0.0
2017-Jul-08 09:29S 29°44' E 031°09'0 0.0
2017-Jul-08 08:59S 29°44' E 031°09'0 0.0
2017-Jul-08 08:29S 29°44' E 031°09'0 0.0
2017-Jul-08 07:59S 29°44' E 031°09'0 0.0
2017-Jul-08 07:29S 29°44' E 031°09'0 0.0
2017-Jul-08 06:59S 29°44' E 031°09'0 0.1
2017-Jul-08 06:29S 29°44' E 031°09'0 0.1
2017-Jul-08 05:59S 29°44' E 031°09'0 0.0
2017-Jul-08 05:29S 29°44' E 031°09'0 0.0
2017-Jul-08 04:59S 29°44' E 031°09'0 0.0
2017-Jul-08 04:29S 29°44' E 031°09'0 0.0
2017-Jul-08 03:59S 29°44' E 031°09'0 0.1
2017-Jul-08 03:29S 29°44' E 031°09'0 0.1
2017-Jul-08 02:59S 29°44' E 031°09'0 0.1
2017-Jul-08 02:29S 29°44' E 031°09'0 0.0
2017-Jul-08 01:59S 29°44' E 031°09'0 0.0
2017-Jul-08 01:29S 29°44' E 031°09'0 0.0
2017-Jul-08 00:59S 29°44' E 031°09'0 0.0
2017-Jul-08 00:29S 29°44' E 031°09'0 0.0
2017-Jul-07 23:59S 29°44' E 031°09'0 0.0
2017-Jul-07 23:29S 29°44' E 031°09'0 0.0
2017-Jul-07 22:59S 29°44' E 031°09'0 0.0
2017-Jul-07 22:29S 29°44' E 031°09'0 0.0
2017-Jul-07 21:59S 29°44' E 031°09'0 0.0
2017-Jul-07 21:29S 29°44' E 031°09'0 0.0
2017-Jul-07 20:59S 29°44' E 031°09'0 0.1
2017-Jul-07 20:29S 29°44' E 031°09'0 0.0
2017-Jul-07 19:59S 29°44' E 031°09'0 0.0
2017-Jul-07 19:29S 29°44' E 031°09'0 0.0
2017-Jul-07 18:59S 29°44' E 031°09'0 0.1
2017-Jul-07 18:29S 29°44' E 031°09'0 0.0
2017-Jul-07 17:59S 29°44' E 031°09'0 0.0
2017-Jul-07 17:29S 29°44' E 031°09'0 0.1
2017-Jul-07 16:59S 29°44' E 031°09'0 0.0
2017-Jul-07 16:29S 29°44' E 031°09'0 0.1
2017-Jul-07 15:59S 29°44' E 031°09'0 0.1
2017-Jul-07 15:29S 29°44' E 031°09'0 0.0
2017-Jul-07 14:59S 29°44' E 031°09'0 0.0
2017-Jul-07 13:59S 29°44' E 031°09'0 0.1
2017-Jul-07 13:29S 29°44' E 031°09'0 0.0
2017-Jul-07 12:59S 29°44' E 031°09'0 0.0
2017-Jul-07 12:29S 29°44' E 031°09'0 0.0
2017-Jul-07 11:59S 29°44' E 031°09'0 0.0
2017-Jul-07 11:29S 29°44' E 031°09'0 0.0
2017-Jul-07 10:59S 29°44' E 031°09'0 0.0
2017-Jul-07 10:29S 29°44' E 031°09'0 0.0
2017-Jul-07 09:59S 29°44' E 031°09'0 0.1
2017-Jul-07 09:29S 29°44' E 031°09'0 0.1
2017-Jul-07 08:59S 29°44' E 031°09'0 0.0
2017-Jul-07 08:29S 29°44' E 031°09'0 0.0
2017-Jul-07 07:59S 29°44' E 031°09'0 0.0
2017-Jul-07 07:29S 29°44' E 031°09'0 0.0
2017-Jul-07 06:59S 29°44' E 031°09'0 0.0
2017-Jul-07 06:29S 29°44' E 031°09'0 0.0
2017-Jul-07 05:59S 29°44' E 031°09'0 0.0
2017-Jul-07 05:29S 29°44' E 031°09'0 0.0
2017-Jul-07 04:59S 29°44' E 031°09'0 0.0
2017-Jul-07 04:28S 29°44' E 031°09'0 0.0
2017-Jul-07 03:59S 29°44' E 031°09'0 0.0
2017-Jul-07 03:28S 29°44' E 031°09'0 0.0
2017-Jul-07 02:59S 29°44' E 031°09'0 0.0
2017-Jul-07 02:29S 29°44' E 031°09'0 0.0
2017-Jul-07 01:59S 29°44' E 031°09'0 0.0
2017-Jul-07 01:29S 29°44' E 031°09'0 0.0
2017-Jul-07 00:59S 29°44' E 031°09'0 0.0
2017-Jul-07 00:29S 29°44' E 031°09'0 0.0
2017-Jul-06 23:59S 29°44' E 031°09'0 0.0
2017-Jul-06 23:29S 29°44' E 031°09'0 0.1
2017-Jul-06 23:14S 29°44' E 031°09'0 0.0
2017-Jul-05 08:28S 29°44' E 031°09'0 0.0
2017-Jul-05 07:58S 29°44' E 031°09'0 0.1
2017-Jul-05 07:23S 29°44' E 031°09'1 2.4
2017-Jul-05 07:00S 29°45' E 031°09'4 8.2
2017-Jul-05 06:31S 29°49' E 031°09'612.5
2017-Jul-05 06:00S 29°55' E 031°09'713.9
2017-Jul-05 05:30S 30°02' E 031°09'713.8
2017-Jul-05 05:00S 30°09' E 031°09'713.4
2017-Jul-05 04:30S 30°15' E 031°08'612.4
2017-Jul-05 04:00S 30°22' E 031°07'  

Dump ship's entire track history